This is the latest recevied weather packets stored in our database for station/object OE3AOG-10. If no packets are shown the sender has not sent any weather packets the latest 10 day(s).
| Time | Temp. | Humidity | Pressure | Rain* | Wind** | Luminosity | Snow |
|---|---|---|---|---|---|---|---|
| 1788543732 | 28.89° C | 33% | 1014.2 hPa | - | - | - | - |
| 1788540131 | 31.11° C | 30% | 1014.6 hPa | - | - | - | - |
| 1788536531 | 32.22° C | 26% | 1015.2 hPa | - | - | - | - |
| 1788532930 | 33.33° C | 25% | 1016 hPa | - | - | - | - |
| 1788529330 | 33.89° C | 25% | 1016.9 hPa | - | - | - | - |
| 1788525731 | 33.89° C | 26% | 1017.8 hPa | - | - | - | - |
| 1788522142 | 33.89° C | 28% | 1018.7 hPa | - | - | - | - |
| 1788518531 | 31.67° C | 31% | 1019.7 hPa | - | - | - | - |
| 1788514930 | 29.44° C | 36% | 1020.4 hPa | - | - | - | - |
| 1788511330 | 27.78° C | 42% | 1020.9 hPa | - | - | - | - |
| 1788507730 | 24.44° C | 55% | 1021.4 hPa | - | - | - | - |
| 1788504129 | 22.22° C | 60% | 1021.5 hPa | - | - | - | - |
| 1788500529 | 20.56° C | 61% | 1021.2 hPa | - | - | - | - |
| 1788496929 | 20° C | 61% | 1021.1 hPa | - | - | - | - |
| 1788493328 | 20° C | 60% | 1021.1 hPa | - | - | - | - |
| 1788489728 | 20° C | 58% | 1021 hPa | - | - | - | - |
| 1788486128 | 20° C | 57% | 1021.1 hPa | - | - | - | - |
| 1788482529 | 19.44° C | 57% | 1021.5 hPa | - | - | - | - |
| 1788478929 | 20° C | 54% | 1021.6 hPa | - | - | - | - |
| 1788475329 | 20.56° C | 52% | 1021.9 hPa | - | - | - | - |
| 1788471729 | 20.56° C | 49% | 1022.2 hPa | - | - | - | - |
| 1788468128 | 21.67° C | 46% | 1021.9 hPa | - | - | - | - |
| 1788464528 | 23.33° C | 41% | 1021.2 hPa | - | - | - | - |
| 1788460928 | 23.89° C | 38% | 1020.9 hPa | - | - | - | - |
| 1788457328 | 24.44° C | 37% | 1020.6 hPa | - | - | - | - |
* Rain since midnight (hover to see other rain measurements)
** Current wind speed in m/s (hover to see current wind gust speed)